Wasilla Airport
PAWS : now visible

Airfield :











YOU CAN JOIN US ON...

 
LOGIN :

Register | Disclaimer

   EN    FR    IT 

 









Legend :    VFR   Marginal VFR   IFR   Intensive IFR   Very Intensive IFR
Visi :
Ceiling :
>= 8 km
>= 3000ft
5 to 8 km
1000 to 3000 ft
1500m to 5 km
500 to 1000 ft
800 to 1500m
200 to 500 ft
< 800m
< 200 ft
Symbols :   Thunderstorms  Fog  Heavy snow  Heavy precipitations  Wind > 20 kt






- Airport Elevation : 354 ft
- IATA code : IYS


PAWS - Wasilla

CURRENT METAR :
  • 281556Z AUTO 06009KT 9SM -SN FEW024 BKN029 OVC034 M06/M09 A2957 RMK AO2 SNB16 SLP022 P0000 T10561089 FZRANO

EXPIRED METARs :
  • 281456Z AUTO 08007KT 10SM BKN047 OVC055 M06/M09 A2960 RMK AO2 SLP032 60000 T10611089 56027 FZRANO
  • 281356Z AUTO 06009KT 10SM BKN049 OVC055 M06/M10 A2961 RMK AO2 SNE04B37E47 SLP037 P0000 T10611100 FZRANO

TAF N/A
PAZA FIR / North America



MET'MAP, your aeronautical weather chart ! - Copyright ORBIFLY December 2007 - Disclaimer

ORBIFLY MET'MAP TEAM :

Programming & Development : Alexandra Zaïnal
Concept & original design : Baudouin d'Aumeries
Assistance for programming : Marc-Olivier Méhu
Technical & hardware support : Manuel Goepfert

Contact : metmap@orbifly.com




SOURCES & CREDITS :

   NOAA       Earth
Advisory